createdAt,value
2023-02-04T00:01:37.147Z,47.83
2023-02-04T00:04:22.295Z,47.87
2023-02-04T00:07:07.846Z,46.00
2023-02-04T00:09:52.818Z,40.73
2023-02-04T00:12:38.222Z,43.33
2023-02-04T00:15:23.677Z,45.10
2023-02-04T00:18:11.948Z,43.97
2023-02-04T00:20:57.201Z,48.00
2023-02-04T00:23:42.237Z,45.83
2023-02-04T00:26:27.383Z,47.30
2023-02-04T00:29:13.037Z,44.73
2023-02-04T00:31:58.304Z,55.50
2023-02-04T00:34:43.724Z,44.23
2023-02-04T00:37:28.758Z,43.77
2023-02-04T00:40:13.875Z,52.70
2023-02-04T00:42:59.719Z,47.63
2023-02-04T00:45:44.630Z,42.77
2023-02-04T00:48:29.881Z,46.77
2023-02-04T00:51:15.306Z,38.93
2023-02-04T00:54:00.579Z,40.23
2023-02-04T00:56:45.999Z,44.53
2023-02-04T00:59:30.949Z,46.07
2023-02-04T01:02:18.323Z,45.57
2023-02-04T01:05:03.658Z,40.97
2023-02-04T01:07:49.093Z,48.30
2023-02-04T01:10:34.579Z,41.13
2023-02-04T01:13:20.023Z,46.60
2023-02-04T01:16:05.716Z,42.00
2023-02-04T01:18:50.605Z,46.87
2023-02-04T01:21:35.577Z,44.40
2023-02-04T01:24:20.510Z,47.03
2023-02-04T01:27:05.533Z,53.70
2023-02-04T01:29:50.577Z,50.20
2023-02-04T01:32:36.111Z,46.13
2023-02-04T01:35:21.078Z,44.47
2023-02-04T01:38:06.005Z,49.43
2023-02-04T01:40:51.108Z,52.30
2023-02-04T01:43:36.356Z,45.33
2023-02-04T01:46:21.856Z,47.80
2023-02-04T01:49:07.258Z,41.33
2023-02-04T01:51:52.550Z,44.37
2023-02-04T01:54:37.797Z,53.50
2023-02-04T01:57:22.889Z,46.17
2023-02-04T02:00:17.771Z,42.80
2023-02-04T02:03:03.033Z,43.97
2023-02-04T02:05:50.902Z,48.47
2023-02-04T02:08:37.393Z,42.13
2023-02-04T02:11:22.402Z,40.03
2023-02-04T02:14:08.140Z,28.07
2023-02-04T02:16:53.821Z,36.73
2023-02-04T02:19:41.027Z,37.40
2023-02-04T02:22:42.253Z,37.27
2023-02-04T02:25:27.664Z,38.57
2023-02-04T02:28:18.510Z,33.67
2023-02-04T02:31:04.198Z,37.60
2023-02-04T02:33:49.408Z,31.13
2023-02-04T02:36:34.778Z,36.10
2023-02-04T02:39:19.908Z,32.20
2023-02-04T02:42:05.209Z,33.73
2023-02-04T02:44:51.766Z,41.67
2023-02-04T02:47:36.791Z,32.00
2023-02-04T02:50:26.058Z,34.03
2023-02-04T02:53:17.099Z,39.33
2023-02-04T02:56:02.798Z,38.53
2023-02-04T02:58:48.071Z,37.07
2023-02-04T03:01:33.808Z,38.20
2023-02-04T03:04:20.176Z,36.43
2023-02-04T03:07:05.777Z,38.03
2023-02-04T03:09:51.126Z,36.80
2023-02-04T03:12:37.172Z,41.20
2023-02-04T03:15:22.217Z,42.57
2023-02-04T03:18:07.773Z,41.10
2023-02-04T03:20:53.390Z,50.53
2023-02-04T03:23:38.881Z,50.10
2023-02-04T03:26:25.143Z,46.23
2023-02-04T03:29:11.081Z,43.13
2023-02-04T03:31:56.407Z,51.57
2023-02-04T03:34:41.511Z,47.50
2023-02-04T03:37:26.553Z,38.83
2023-02-04T03:40:12.956Z,47.37
2023-02-04T03:42:58.071Z,47.63
2023-02-04T03:45:45.634Z,45.57
2023-02-04T03:48:31.125Z,47.40
2023-02-04T03:51:16.364Z,45.77
2023-02-04T03:54:01.490Z,47.70
2023-02-04T03:56:46.704Z,50.27
2023-02-04T03:59:31.503Z,51.77
2023-02-04T04:02:16.450Z,45.73
2023-02-04T04:05:01.365Z,50.03
2023-02-04T04:07:47.122Z,49.73
2023-02-04T04:10:32.668Z,54.30
2023-02-04T04:13:18.096Z,49.33
2023-02-04T04:16:03.816Z,48.20
2023-02-04T04:18:48.800Z,53.80
2023-02-04T04:21:34.222Z,49.43
2023-02-04T04:24:19.454Z,47.97
2023-02-04T04:27:04.299Z,48.17
2023-02-04T04:29:49.730Z,49.03
2023-02-04T04:32:34.876Z,53.73
2023-02-04T04:35:20.008Z,51.73
2023-02-04T04:38:05.272Z,54.63
2023-02-04T04:40:50.815Z,52.00
2023-02-04T04:43:36.149Z,51.13
2023-02-04T04:46:21.530Z,53.93
2023-02-04T04:49:07.096Z,48.97
2023-02-04T04:51:52.125Z,48.50
2023-02-04T04:54:37.168Z,45.90
2023-02-04T04:57:22.773Z,56.73
2023-02-04T05:00:08.742Z,54.93
2023-02-04T05:02:54.209Z,48.60
2023-02-04T05:05:39.525Z,44.43
2023-02-04T05:08:24.983Z,46.57
2023-02-04T05:11:10.420Z,52.10
2023-02-04T05:13:55.457Z,51.07
2023-02-04T05:16:40.624Z,47.87
2023-02-04T05:19:25.770Z,54.80
2023-02-04T05:22:11.241Z,52.40
2023-02-04T05:24:56.403Z,51.43
2023-02-04T05:27:41.664Z,45.70
2023-02-04T05:30:27.167Z,51.47
2023-02-04T05:33:12.700Z,50.90
2023-02-04T05:35:58.012Z,46.73
2023-02-04T05:38:43.823Z,52.40
2023-02-04T05:41:29.018Z,45.43
2023-02-04T05:44:14.251Z,31.40
2023-02-04T05:46:59.320Z,39.63
2023-02-04T05:49:44.766Z,30.53
2023-02-04T05:52:30.074Z,32.70
2023-02-04T05:55:14.992Z,28.73
2023-02-04T05:57:59.894Z,27.53
2023-02-04T06:00:45.171Z,21.03
2023-02-04T06:03:31.580Z,25.23
2023-02-04T06:06:17.018Z,19.90
2023-02-04T06:09:02.370Z,22.93
2023-02-04T06:11:47.769Z,24.23
2023-02-04T06:14:33.049Z,28.93
2023-02-04T06:17:18.023Z,26.83
2023-02-04T06:20:03.767Z,21.50
2023-02-04T06:22:48.928Z,25.37
2023-02-04T06:25:34.556Z,20.50
2023-02-04T06:28:20.028Z,26.13
2023-02-04T06:31:05.722Z,17.17
2023-02-04T06:33:50.649Z,21.53
2023-02-04T06:36:35.522Z,24.70
2023-02-04T06:39:20.924Z,21.80
2023-02-04T06:42:06.423Z,16.57
2023-02-04T06:44:52.466Z,21.70
2023-02-04T06:47:38.016Z,19.00
2023-02-04T06:50:23.073Z,18.97
2023-02-04T06:53:08.860Z,18.70
2023-02-04T06:55:54.187Z,19.73
2023-02-04T06:58:39.677Z,19.30
2023-02-04T07:01:25.006Z,16.20
2023-02-04T07:04:10.191Z,19.17
2023-02-04T07:06:55.522Z,20.07
2023-02-04T07:09:40.989Z,16.27
2023-02-04T07:12:26.345Z,16.40
2023-02-04T07:15:11.479Z,19.73
2023-02-04T07:17:56.227Z,18.27
2023-02-04T07:20:41.230Z,22.00
2023-02-04T07:23:26.089Z,16.90
2023-02-04T07:26:10.928Z,22.30
2023-02-04T07:28:56.493Z,20.40
2023-02-04T07:31:41.853Z,22.10
2023-02-04T07:34:27.117Z,18.00
2023-02-04T07:37:12.569Z,15.90
2023-02-04T07:39:57.674Z,21.87
2023-02-04T07:42:42.933Z,21.77
2023-02-04T07:45:28.374Z,23.93
2023-02-04T07:48:13.862Z,21.97
2023-02-04T07:50:59.297Z,17.60
2023-02-04T07:53:44.651Z,18.77
2023-02-04T07:56:29.660Z,25.90
2023-02-04T07:59:15.200Z,24.60
2023-02-04T08:02:00.247Z,23.93
2023-02-04T08:04:46.095Z,25.70
2023-02-04T08:07:31.234Z,22.37
2023-02-04T08:10:16.875Z,23.87
2023-02-04T08:13:02.182Z,21.50
2023-02-04T08:15:47.600Z,23.73
2023-02-04T08:18:32.879Z,21.83
2023-02-04T08:21:23.512Z,24.97
2023-02-04T08:24:08.876Z,25.33
2023-02-04T08:26:54.047Z,21.30
2023-02-04T08:29:39.789Z,21.43
2023-02-04T08:32:24.920Z,18.83
2023-02-04T08:35:10.027Z,18.73
2023-02-04T08:37:55.292Z,19.53
2023-02-04T08:40:40.895Z,17.67
2023-02-04T08:43:26.894Z,25.77
2023-02-04T08:46:12.152Z,18.67
2023-02-04T08:48:57.437Z,20.23
2023-02-04T08:51:42.729Z,18.87
2023-02-04T08:54:28.033Z,16.67
2023-02-04T08:57:13.465Z,17.50
2023-02-04T08:59:58.742Z,18.60
2023-02-04T09:02:44.581Z,23.70
2023-02-04T09:05:29.821Z,26.30
2023-02-04T09:08:14.581Z,27.73
2023-02-04T09:11:00.041Z,28.60
2023-02-04T09:13:45.460Z,21.77
2023-02-04T09:16:31.270Z,17.53
2023-02-04T09:19:16.316Z,24.83
2023-02-04T09:22:01.290Z,18.77
2023-02-04T09:24:46.026Z,18.00
2023-02-04T09:27:31.547Z,16.63
2023-02-04T09:30:17.161Z,42.60
2023-02-04T09:33:02.408Z,15.13
2023-02-04T09:35:47.265Z,17.53
2023-02-04T09:38:32.703Z,14.43
2023-02-04T09:41:18.156Z,14.53
2023-02-04T09:44:04.920Z,14.80
2023-02-04T09:46:53.711Z,13.20
2023-02-04T09:49:39.469Z,15.77
2023-02-04T09:52:27.410Z,14.10
2023-02-04T09:55:18.165Z,15.53
2023-02-04T09:58:05.964Z,15.87
2023-02-04T10:01:09.136Z,14.07
2023-02-04T10:03:56.463Z,13.07
2023-02-04T10:06:43.522Z,14.80
2023-02-04T10:09:28.970Z,11.23
2023-02-04T10:12:14.545Z,15.83
2023-02-04T10:14:59.793Z,12.37
2023-02-04T10:17:47.605Z,9.90
2023-02-04T10:20:33.186Z,17.07
2023-02-04T10:23:18.533Z,11.77
2023-02-04T10:26:04.519Z,13.90
2023-02-04T10:28:49.518Z,14.00
2023-02-04T10:31:40.536Z,11.43
2023-02-04T10:34:36.302Z,13.53
2023-02-04T10:37:22.568Z,8.97
2023-02-04T10:40:31.980Z,10.33
2023-02-04T10:43:22.013Z,9.80
2023-02-04T10:46:07.381Z,14.70
2023-02-04T10:48:52.583Z,13.70
2023-02-04T10:51:38.087Z,10.53
2023-02-04T10:54:27.829Z,14.77
2023-02-04T10:57:30.251Z,12.67
2023-02-04T11:00:17.686Z,11.83
2023-02-04T11:03:12.118Z,12.97
2023-02-04T11:05:59.296Z,12.30
2023-02-04T11:08:44.768Z,13.73
2023-02-04T11:11:30.178Z,12.27
2023-02-04T11:14:27.595Z,11.30
2023-02-04T11:17:20.588Z,13.23
2023-02-04T11:20:17.247Z,8.10
2023-02-04T11:23:27.067Z,9.20
2023-02-04T11:26:18.360Z,12.17
2023-02-04T11:29:04.446Z,8.40
2023-02-04T11:31:50.039Z,9.13
2023-02-04T11:34:53.442Z,9.30
2023-02-04T11:37:41.314Z,6.40
2023-02-04T11:40:35.596Z,7.10
2023-02-04T11:43:21.948Z,9.07
2023-02-04T11:46:16.124Z,9.13
2023-02-04T11:49:01.205Z,8.07
2023-02-04T11:51:46.542Z,7.17
2023-02-04T11:54:31.644Z,8.53
2023-02-04T11:57:17.412Z,8.57
2023-02-04T12:00:02.760Z,9.97
2023-02-04T12:02:50.782Z,7.47
2023-02-04T12:05:44.405Z,8.70
2023-02-04T12:08:35.423Z,7.17
2023-02-04T12:11:28.104Z,7.27
2023-02-04T12:14:17.735Z,10.93
2023-02-04T12:17:16.337Z,9.73
2023-02-04T12:20:01.783Z,6.43
2023-02-04T12:22:46.660Z,8.17
2023-02-04T12:25:32.334Z,8.33
2023-02-04T12:28:17.571Z,8.87
2023-02-04T12:31:03.172Z,3.97
2023-02-04T12:33:48.146Z,5.73
2023-02-04T12:36:33.153Z,7.07
2023-02-04T12:39:18.462Z,8.03
2023-02-04T12:42:04.048Z,3.90
2023-02-04T12:44:49.240Z,6.63
2023-02-04T12:47:34.203Z,5.13
2023-02-04T12:50:21.009Z,6.73
2023-02-04T12:53:05.978Z,6.47
2023-02-04T12:55:51.740Z,7.17
2023-02-04T12:58:37.081Z,6.07
2023-02-04T13:01:22.354Z,6.23
2023-02-04T13:04:07.837Z,8.80
2023-02-04T13:06:53.149Z,6.67
2023-02-04T13:09:38.624Z,8.37
2023-02-04T13:12:24.019Z,7.60
2023-02-04T13:15:10.309Z,8.57
2023-02-04T13:17:55.752Z,8.70
2023-02-04T13:20:41.321Z,8.60
2023-02-04T13:23:26.637Z,6.80
2023-02-04T13:26:11.894Z,6.10
2023-02-04T13:28:57.395Z,5.97
2023-02-04T13:31:43.042Z,6.97
2023-02-04T13:34:28.755Z,8.10
2023-02-04T13:37:14.206Z,5.53
2023-02-04T13:39:59.160Z,5.50
2023-02-04T13:42:44.553Z,7.60
2023-02-04T13:45:30.722Z,5.70
2023-02-04T13:48:16.677Z,8.13
2023-02-04T13:51:02.145Z,8.10
2023-02-04T13:53:47.105Z,8.77
2023-02-04T13:56:32.396Z,6.97
2023-02-04T13:59:17.254Z,6.37
2023-02-04T14:02:02.791Z,9.17
2023-02-04T14:04:47.938Z,7.90
2023-02-04T14:07:33.110Z,10.43
2023-02-04T14:10:18.592Z,13.67
2023-02-04T14:13:03.586Z,9.30
2023-02-04T14:15:49.026Z,9.43
2023-02-04T14:18:34.401Z,6.67
2023-02-04T14:21:19.344Z,10.23
2023-02-04T14:24:04.971Z,11.20
2023-02-04T14:26:50.670Z,7.27
2023-02-04T14:29:39.075Z,7.80
2023-02-04T14:32:24.425Z,10.03
2023-02-04T14:35:09.585Z,7.30
2023-02-04T14:37:54.799Z,8.57
2023-02-04T14:40:39.553Z,6.53
2023-02-04T14:43:24.620Z,8.10
2023-02-04T14:46:09.841Z,5.83
2023-02-04T14:48:55.205Z,5.90
2023-02-04T14:51:41.256Z,7.97
2023-02-04T14:54:26.547Z,9.13
2023-02-04T14:57:12.228Z,7.90
2023-02-04T14:59:57.575Z,8.53
2023-02-04T15:02:43.538Z,9.83
2023-02-04T15:05:29.036Z,24.63
2023-02-04T15:08:14.253Z,21.93
2023-02-04T15:10:59.431Z,11.17
2023-02-04T15:13:44.768Z,15.57
2023-02-04T15:16:30.749Z,7.80
2023-02-04T15:19:17.506Z,8.70
2023-02-04T15:22:02.583Z,8.10
2023-02-04T15:24:47.980Z,10.80
2023-02-04T15:27:32.872Z,10.23
2023-02-04T15:30:17.915Z,8.60
2023-02-04T15:33:03.161Z,9.17
2023-02-04T15:35:48.422Z,12.37
2023-02-04T15:38:35.167Z,10.30
2023-02-04T15:41:20.404Z,9.27
2023-02-04T15:44:06.091Z,8.20
2023-02-04T15:46:50.965Z,7.03
2023-02-04T15:49:36.388Z,7.27
2023-02-04T15:52:25.256Z,10.80
2023-02-04T15:55:10.779Z,8.80
2023-02-04T15:57:56.201Z,8.43
2023-02-04T16:00:44.321Z,8.27
2023-02-04T16:03:29.424Z,8.20
2023-02-04T16:06:14.277Z,8.50
2023-02-04T16:09:00.047Z,10.67
2023-02-04T16:11:45.474Z,14.27
2023-02-04T16:14:30.725Z,14.90
2023-02-04T16:17:15.656Z,13.43
2023-02-04T16:20:01.123Z,13.50
2023-02-04T16:22:46.642Z,14.73
2023-02-04T16:25:32.052Z,21.13
2023-02-04T16:28:17.673Z,23.40
2023-02-04T16:31:02.786Z,15.20
2023-02-04T16:33:48.326Z,18.80
2023-02-04T16:36:33.372Z,44.50
2023-02-04T16:39:18.936Z,76.63
2023-02-04T16:42:07.686Z,21.43
2023-02-04T16:44:52.739Z,17.30
2023-02-04T16:47:38.273Z,13.87
2023-02-04T16:50:23.536Z,14.50
2023-02-04T16:53:08.522Z,15.73
2023-02-04T16:55:53.735Z,15.57
2023-02-04T16:58:39.066Z,14.57
2023-02-04T17:01:24.761Z,15.23
2023-02-04T17:04:10.028Z,14.80
2023-02-04T17:06:55.465Z,13.93
2023-02-04T17:09:40.924Z,17.17
2023-02-04T17:12:27.408Z,17.00
2023-02-04T17:15:12.539Z,14.87
2023-02-04T17:17:57.795Z,13.57
2023-02-04T17:20:43.199Z,14.37
2023-02-04T17:23:28.604Z,14.93
2023-02-04T17:26:13.719Z,27.00
2023-02-04T17:28:59.024Z,22.37
2023-02-04T17:31:44.365Z,18.20
2023-02-04T17:34:29.607Z,13.90
2023-02-04T17:37:14.375Z,15.80
2023-02-04T17:39:59.904Z,16.67
2023-02-04T17:42:45.377Z,25.00
2023-02-04T17:45:31.395Z,20.60
2023-02-04T17:48:17.794Z,22.47
2023-02-04T17:51:03.642Z,60.83
2023-02-04T17:53:48.964Z,67.10
2023-02-04T17:56:34.549Z,40.27
2023-02-04T17:59:19.798Z,29.73
2023-02-04T18:02:22.834Z,23.23
2023-02-04T18:05:14.432Z,23.60
2023-02-04T18:08:05.251Z,19.07
2023-02-04T18:10:53.205Z,20.17
2023-02-04T18:13:38.230Z,20.27
2023-02-04T18:16:27.843Z,18.03
2023-02-04T18:19:26.105Z,21.87
2023-02-04T18:22:18.158Z,24.20
2023-02-04T18:25:12.819Z,23.00
2023-02-04T18:28:02.096Z,22.40
2023-02-04T18:30:53.120Z,22.00
2023-02-04T18:33:38.371Z,20.57
2023-02-04T18:36:24.239Z,17.47
2023-02-04T18:39:18.585Z,19.83
2023-02-04T18:42:15.632Z,18.23
2023-02-04T18:45:19.954Z,19.17
2023-02-04T18:48:20.449Z,15.77
2023-02-04T18:51:23.449Z,17.27
2023-02-04T18:54:20.907Z,18.27
2023-02-04T18:57:12.425Z,18.37
2023-02-04T19:00:23.634Z,22.57
2023-02-04T19:03:24.979Z,50.63
2023-02-04T19:06:25.606Z,22.30
2023-02-04T19:09:10.799Z,22.13
2023-02-04T19:12:16.801Z,24.63
2023-02-04T19:15:14.370Z,28.73
2023-02-04T19:18:17.679Z,26.20
2023-02-04T19:21:21.096Z,25.13
2023-02-04T19:24:15.696Z,25.70
2023-02-04T19:27:01.855Z,24.80
2023-02-04T19:29:48.657Z,24.47
2023-02-04T19:32:57.924Z,23.20
2023-02-04T19:35:43.692Z,25.63
2023-02-04T19:38:40.769Z,28.00
2023-02-04T19:41:30.407Z,23.80
2023-02-04T19:44:15.397Z,24.80
2023-02-04T19:47:19.739Z,23.00
2023-02-04T19:50:13.947Z,27.37
2023-02-04T19:53:03.174Z,28.17
2023-02-04T19:55:52.222Z,31.53
2023-02-04T19:58:42.169Z,34.97
2023-02-04T20:01:27.050Z,27.53
2023-02-04T20:04:20.619Z,25.60
2023-02-04T20:07:21.739Z,42.43
2023-02-04T20:10:06.537Z,33.33
2023-02-04T20:12:58.937Z,27.33
2023-02-04T20:15:44.349Z,26.37
2023-02-04T20:18:29.713Z,24.77
2023-02-04T20:21:14.577Z,29.37
2023-02-04T20:24:00.667Z,27.43
2023-02-04T20:26:45.739Z,27.67
2023-02-04T20:29:34.444Z,32.03
2023-02-04T20:32:20.932Z,26.70
2023-02-04T20:35:09.236Z,23.93
2023-02-04T20:37:59.214Z,27.03
2023-02-04T20:40:44.794Z,23.37
2023-02-04T20:43:34.226Z,21.87
2023-02-04T20:46:25.429Z,24.37
2023-02-04T20:49:22.140Z,28.83
2023-02-04T20:52:42.271Z,24.90
2023-02-04T20:55:34.633Z,19.37
2023-02-04T20:58:27.317Z,21.03
2023-02-04T21:01:35.342Z,20.53
2023-02-04T21:04:29.971Z,17.83
2023-02-04T21:07:22.874Z,17.07
2023-02-04T21:10:08.361Z,18.23
2023-02-04T21:12:56.215Z,19.03
2023-02-04T21:15:41.460Z,19.13
2023-02-04T21:18:27.177Z,18.07
2023-02-04T21:21:14.029Z,17.87
2023-02-04T21:23:59.127Z,15.87
2023-02-04T21:26:44.736Z,17.90
2023-02-04T21:29:30.149Z,17.40
2023-02-04T21:32:15.670Z,15.77
2023-02-04T21:35:00.916Z,17.23
2023-02-04T21:37:46.242Z,19.73
2023-02-04T21:40:32.463Z,15.43
2023-02-04T21:43:17.610Z,16.97
2023-02-04T21:46:02.596Z,17.13
2023-02-04T21:48:47.985Z,20.07
2023-02-04T21:51:33.100Z,26.30
2023-02-04T21:54:18.566Z,48.63
2023-02-04T21:57:03.859Z,33.83
2023-02-04T21:59:49.213Z,29.97
2023-02-04T22:02:40.549Z,26.90
2023-02-04T22:05:26.152Z,22.63
2023-02-04T22:08:11.681Z,22.40
2023-02-04T22:10:56.842Z,21.53
2023-02-04T22:13:42.280Z,19.20
2023-02-04T22:16:27.579Z,20.33
2023-02-04T22:19:12.872Z,21.50
2023-02-04T22:21:58.211Z,20.50
2023-02-04T22:24:43.663Z,19.47
2023-02-04T22:27:28.708Z,18.10
2023-02-04T22:30:16.089Z,17.63
2023-02-04T22:33:01.583Z,17.70
2023-02-04T22:35:47.104Z,17.63
2023-02-04T22:38:32.652Z,19.97
2023-02-04T22:41:17.956Z,16.90
2023-02-04T22:44:03.124Z,18.40
2023-02-04T22:46:48.426Z,20.63
2023-02-04T22:49:33.820Z,18.70
2023-02-04T22:52:18.675Z,18.23
2023-02-04T22:55:04.460Z,19.03
2023-02-04T22:57:49.433Z,20.40
2023-02-04T23:00:34.749Z,20.37
2023-02-04T23:03:20.367Z,19.57
2023-02-04T23:06:06.141Z,22.30
2023-02-04T23:08:51.608Z,19.07
2023-02-04T23:11:36.845Z,21.70
2023-02-04T23:14:22.075Z,23.17
2023-02-04T23:17:07.993Z,24.60
2023-02-04T23:19:53.417Z,22.20
2023-02-04T23:22:38.921Z,23.80
2023-02-04T23:25:24.395Z,22.50
2023-02-04T23:28:09.586Z,25.37
2023-02-04T23:30:55.126Z,25.47
2023-02-04T23:33:40.118Z,24.90
2023-02-04T23:36:25.075Z,22.80
2023-02-04T23:39:10.237Z,25.13
2023-02-04T23:41:55.985Z,23.47
2023-02-04T23:44:41.138Z,24.93
2023-02-04T23:47:26.027Z,22.90
2023-02-04T23:50:11.459Z,22.00
2023-02-04T23:52:56.316Z,24.50
2023-02-04T23:55:41.154Z,28.70
2023-02-04T23:58:26.564Z,25.10
